Time;durP1;ratioP1;P1;durP2;ratioP2;P2;SDS_P1;SDS_P2;PMS_P1;PMS_P2;Temp;Humidity;BMP_temperature;BMP_pressure;BME280_temperature;BME280_humidity;BME280_pressure;Samples;Min_cycle;Max_cycle;Signal;HPM_P1;HPM_P2
2022/02/08 00:00:08;;;;;;;14.65;3.95;;;6.60;99.90;;;;;;5018119;28;20057;-93
2022/02/08 00:02:37;;;;;;;24.30;3.53;;;6.50;99.90;;;;;;5009632;28;20042;-94
2022/02/08 00:05:08;;;;;;;14.35;4.13;;;6.50;99.90;;;;;;5026699;28;20069;-93
2022/02/08 00:07:34;;;;;;;20.92;4.25;;;6.50;99.90;;;;;;5010571;28;20018;-92
2022/02/08 00:10:00;;;;;;;23.50;3.63;;;6.50;99.90;;;;;;5010448;28;20034;-93
2022/02/08 00:12:25;;;;;;;15.38;3.47;;;6.40;99.90;;;;;;5010337;28;20087;-93
2022/02/08 00:14:52;;;;;;;15.57;3.72;;;6.40;99.90;;;;;;5026907;28;20064;-94
2022/02/08 00:17:18;;;;;;;26.00;4.63;;;6.40;99.90;;;;;;5011817;28;20025;-94
2022/02/08 00:19:43;;;;;;;21.58;3.92;;;6.40;99.90;;;;;;5027762;28;20553;-94
2022/02/08 00:22:09;;;;;;;15.73;3.72;;;6.40;99.90;;;;;;5027646;28;20038;-94
2022/02/08 00:24:34;;;;;;;23.13;4.50;;;6.40;99.90;;;;;;5008028;28;20034;-93
2022/02/08 00:27:00;;;;;;;18.67;3.65;;;6.40;99.90;;;;;;5011964;28;20086;-93
2022/02/08 00:29:26;;;;;;;18.08;4.35;;;6.40;99.90;;;;;;5029183;28;20038;-94
2022/02/08 00:31:52;;;;;;;22.42;4.82;;;6.40;99.90;;;;;;5030153;28;20106;-93
2022/02/08 00:34:17;;;;;;;18.67;4.13;;;6.40;99.90;;;;;;5013838;28;20034;-94
2022/02/08 00:36:43;;;;;;;28.55;5.78;;;6.40;99.90;;;;;;5010102;28;20034;-93
2022/02/08 00:39:10;;;;;;;24.60;5.30;;;6.40;99.90;;;;;;5013316;28;20025;-93
2022/02/08 00:41:37;;;;;;;19.35;5.15;;;6.40;99.90;;;;;;5030931;28;20043;-93
2022/02/08 00:44:18;;;;;;;26.02;5.55;;;6.40;99.90;;;;;;5029784;28;20124;-94
2022/02/08 00:46:55;;;;;;;20.45;5.88;;;6.50;99.90;;;;;;5029876;28;20030;-94
2022/02/08 00:49:29;;;;;;;21.77;7.15;;;6.50;99.90;;;;;;5011680;28;20324;-94
2022/02/08 00:52:03;;;;;;;23.65;6.68;;;6.50;99.90;;;;;;5031373;28;20088;-94
2022/02/08 00:54:29;;;;;;;30.25;8.15;;;6.50;99.90;;;;;;5023403;28;20128;-94
2022/02/08 00:56:54;;;;;;;33.85;8.10;;;6.60;99.90;;;;;;5012900;28;20065;-95
2022/02/08 00:59:20;;;;;;;27.75;8.77;;;6.60;99.90;;;;;;5029504;28;20014;-94
2022/02/08 01:01:46;;;;;;;18.73;7.38;;;6.60;99.90;;;;;;5019004;28;20046;-94
2022/02/08 01:04:12;;;;;;;25.27;8.85;;;6.60;99.90;;;;;;4993884;28;20089;-93
2022/02/08 01:06:40;;;;;;;27.67;10.20;;;6.60;99.90;;;;;;4995433;28;20023;-93
2022/02/08 01:09:22;;;;;;;25.95;10.32;;;6.60;99.90;;;;;;4992360;28;20026;-95
2022/02/08 01:11:52;;;;;;;;;;;6.60;99.90;;;;;;4993248;28;20038;-94
2022/02/08 01:14:18;;;;;;;31.40;11.50;;;6.60;99.90;;;;;;4995246;28;19945;-95
2022/02/08 01:16:44;;;;;;;30.42;12.43;;;6.60;99.90;;;;;;4994027;28;20062;-92
2022/02/08 01:19:10;;;;;;;28.30;12.80;;;6.60;99.90;;;;;;5008889;28;20387;-94
2022/02/08 01:21:36;;;;;;;24.88;13.00;;;6.60;99.90;;;;;;4994622;28;20120;-95
2022/02/08 01:24:01;;;;;;;30.17;14.68;;;6.60;99.90;;;;;;4994864;28;20026;-95
2022/02/08 01:26:29;;;;;;;36.42;15.60;;;6.60;99.90;;;;;;4995347;28;20061;-93
2022/02/08 01:29:40;;;;;;;31.80;16.90;;;6.70;99.90;;;;;;5010960;28;20395;-95
2022/02/08 01:31:46;;;;;;;32.90;16.42;;;6.70;99.90;;;;;;4975092;28;20157;-95
2022/02/08 01:34:34;;;;;;;36.53;16.50;;;6.70;99.90;;;;;;4994256;28;20030;-95
2022/02/08 01:39:39;;;;;;;36.47;18.63;;;6.70;99.90;;;;;;4986512;28;20382;-94
2022/02/08 01:47:50;;;;;;;33.42;19.65;;;6.80;99.90;;;;;;4994872;28;20041;-94
2022/02/08 01:50:17;;;;;;;42.78;20.77;;;6.80;99.90;;;;;;4995825;28;20026;-93
2022/02/08 01:52:44;;;;;;;36.25;21.90;;;6.80;99.90;;;;;;4995842;28;20113;-94
2022/02/08 01:55:12;;;;;;;39.83;21.10;;;6.90;99.90;;;;;;4988281;28;20033;-94
2022/02/08 01:57:40;;;;;;;43.05;23.73;;;6.90;99.90;;;;;;4982333;28;20456;-96
2022/02/08 02:00:09;;;;;;;38.00;24.13;;;6.90;99.90;;;;;;4996528;28;20137;-93
2022/02/08 02:02:34;;;;;;;43.45;23.92;;;7.00;99.90;;;;;;5012095;28;20125;-94
2022/02/08 02:05:01;;;;;;;43.70;24.30;;;7.00;99.90;;;;;;5030488;28;20188;-95
2022/02/08 02:07:27;;;;;;;52.25;25.63;;;7.00;99.90;;;;;;5012455;28;20436;-93
2022/02/08 02:09:52;;;;;;;47.00;26.15;;;7.00;99.90;;;;;;5027516;28;20030;-94
2022/02/08 02:12:18;;;;;;;50.53;28.45;;;7.00;99.90;;;;;;5012118;28;20026;-94
2022/02/08 02:14:44;;;;;;;52.38;27.52;;;7.00;99.90;;;;;;5029858;28;20030;-95
2022/02/08 02:17:11;;;;;;;47.60;25.95;;;7.00;99.90;;;;;;5031081;28;20053;-95
2022/02/08 02:19:38;;;;;;;52.05;30.42;;;7.00;99.90;;;;;;5029114;28;20144;-94
2022/02/08 02:22:06;;;;;;;49.17;28.67;;;7.00;99.90;;;;;;5028228;28;20026;-94
2022/02/08 02:24:31;;;;;;;60.97;29.60;;;7.10;99.90;;;;;;5028414;28;20129;-94
2022/02/08 02:26:58;;;;;;;54.78;29.70;;;7.10;99.90;;;;;;5014472;28;20069;-95
2022/02/08 02:29:25;;;;;;;55.63;30.08;;;7.10;99.90;;;;;;5013079;28;20081;-96
2022/02/08 02:31:50;;;;;;;51.45;29.98;;;7.10;99.90;;;;;;5031649;28;20037;-93
2022/02/08 02:34:17;;;;;;;48.35;29.27;;;7.10;99.90;;;;;;5028069;28;20359;-94
2022/02/08 02:36:44;;;;;;;50.55;29.95;;;7.10;99.90;;;;;;5029730;28;20036;-95
2022/02/08 02:39:10;;;;;;;49.08;28.77;;;7.20;99.90;;;;;;5024203;28;20034;-94
2022/02/08 02:41:38;;;;;;;54.10;31.52;;;7.20;99.90;;;;;;5031120;28;20078;-94
2022/02/08 02:44:05;;;;;;;57.72;31.92;;;7.20;99.90;;;;;;5019517;28;20038;-95
2022/02/08 02:46:32;;;;;;;55.15;33.15;;;7.30;99.90;;;;;;5037477;28;20437;-95
2022/02/08 02:48:57;;;;;;;57.75;31.98;;;7.30;99.90;;;;;;5025312;28;20022;-93
2022/02/08 02:51:24;;;;;;;56.33;32.83;;;7.30;99.90;;;;;;5016856;28;20038;-94
2022/02/08 02:53:50;;;;;;;58.20;32.95;;;7.40;99.90;;;;;;5021189;28;20041;-96
2022/02/08 02:56:15;;;;;;;66.63;36.17;;;7.40;99.90;;;;;;5042766;28;20026;-95
2022/02/08 02:58:41;;;;;;;69.57;34.13;;;7.40;99.90;;;;;;5027307;28;20097;-95
2022/02/08 03:01:19;;;;;;;62.10;34.20;;;7.50;99.90;;;;;;5033365;28;20042;-96
2022/02/08 03:04:07;;;;;;;61.33;34.03;;;7.50;99.90;;;;;;5010812;28;20515;-96
2022/02/08 03:18:08;;;;;;;57.00;32.25;;;7.70;99.90;;;;;;5026841;28;20054;-96
2022/02/08 03:20:34;;;;;;;52.38;29.55;;;7.70;99.90;;;;;;5020629;28;20062;-95
2022/02/08 03:22:59;;;;;;;54.00;28.08;;;7.80;99.90;;;;;;5020615;28;20030;-95
2022/02/08 03:25:25;;;;;;;56.92;29.30;;;7.80;99.90;;;;;;5025407;28;20030;-94
2022/02/08 03:27:52;;;;;;;58.22;29.08;;;7.90;99.90;;;;;;5042185;28;20026;-95
2022/02/08 03:30:17;;;;;;;47.35;27.13;;;8.00;99.90;;;;;;5026597;28;20022;-95
2022/02/08 03:32:44;;;;;;;55.72;28.58;;;8.00;99.90;;;;;;5008759;28;20041;-94
2022/02/08 03:35:11;;;;;;;48.40;29.02;;;8.00;99.90;;;;;;5020876;28;20032;-96
2022/02/08 03:37:38;;;;;;;46.85;27.77;;;8.00;99.90;;;;;;5017521;28;20037;-95
2022/02/08 03:40:13;;;;;;;47.03;26.23;;;8.10;99.90;;;;;;5014304;28;20475;-95
2022/02/08 03:42:56;;;;;;;37.58;24.48;;;8.20;99.90;;;;;;5011651;28;20025;-93
2022/02/08 03:45:22;;;;;;;44.75;24.50;;;8.20;99.90;;;;;;5028842;28;20129;-95
2022/02/08 03:47:48;;;;;;;39.10;23.65;;;8.20;99.90;;;;;;5028964;28;20046;-95
2022/02/08 03:50:13;;;;;;;41.55;24.60;;;8.20;99.90;;;;;;5030060;28;20041;-93
2022/02/08 03:52:39;;;;;;;41.20;24.45;;;8.30;99.90;;;;;;5015418;28;20030;-95
2022/02/08 03:55:05;;;;;;;43.00;24.75;;;8.30;99.90;;;;;;5023631;28;20451;-94
2022/02/08 03:57:30;;;;;;;45.25;23.55;;;8.30;99.90;;;;;;5027184;28;20121;-95
2022/02/08 03:59:56;;;;;;;44.85;23.77;;;8.30;99.90;;;;;;5015036;28;20164;-93
2022/02/08 04:04:53;;;;;;;42.90;24.63;;;8.40;99.90;;;;;;5026498;28;20042;-92
2022/02/08 04:07:36;;;;;;;44.08;24.05;;;8.40;99.90;;;;;;5034525;28;20079;-93
2022/02/08 04:10:04;;;;;;;38.72;23.83;;;8.40;99.90;;;;;;5016664;28;20033;-94
2022/02/08 04:12:39;;;;;;;42.30;23.83;;;8.40;99.90;;;;;;5034529;28;20488;-94
2022/02/08 04:15:27;;;;;;;41.97;24.40;;;8.40;99.90;;;;;;5017383;28;20037;-95
2022/02/08 04:18:19;;;;;;;40.78;23.67;;;8.40;99.90;;;;;;5032062;28;20060;-94
2022/02/08 04:31:27;;;;;;;40.42;23.70;;;8.40;99.90;;;;;;5035182;28;20377;-93
2022/02/08 04:34:50;;;;;;;39.80;22.77;;;8.40;99.90;;;;;;5033413;28;20090;-94
2022/02/08 04:42:59;;;;;;;32.15;20.40;;;8.40;99.90;;;;;;5031943;28;20061;-95
2022/02/08 04:50:24;;;;;;;37.33;20.75;;;8.30;99.90;;;;;;5034112;28;20036;-93
2022/02/08 04:52:51;;;;;;;38.03;21.95;;;8.30;99.90;;;;;;5016581;28;20177;-94
2022/02/08 05:00:42;;;;;;;38.30;21.75;;;8.40;99.90;;;;;;5033864;28;20466;-94
2022/02/08 05:35:55;;;;;;;30.92;20.10;;;8.40;99.90;;;;;;5038709;28;20117;-96
2022/02/08 05:40:47;;;;;;;33.87;19.33;;;8.40;99.90;;;;;;5017035;28;20029;-95
2022/02/08 05:48:37;;;;;;;31.55;19.60;;;8.50;99.90;;;;;;5029624;28;20494;-95
2022/02/08 05:51:13;;;;;;;32.55;19.10;;;8.50;99.90;;;;;;5029005;28;20500;-93
2022/02/08 05:53:43;;;;;;;26.73;18.48;;;8.40;99.90;;;;;;5032675;28;20022;-94
2022/02/08 05:56:09;;;;;;;27.65;18.45;;;8.50;99.90;;;;;;5030341;28;20047;-95
2022/02/08 05:58:35;;;;;;;28.40;19.15;;;8.40;99.90;;;;;;5014399;28;20018;-94
2022/02/08 06:01:02;;;;;;;34.47;20.27;;;8.40;99.90;;;;;;5015944;28;20052;-95
2022/02/08 06:03:30;;;;;;;33.10;21.27;;;8.40;99.90;;;;;;5017181;28;20157;-96
2022/02/08 06:05:56;;;;;;;32.85;21.40;;;8.40;99.90;;;;;;5017370;28;20444;-95
2022/02/08 06:08:21;;;;;;;35.33;21.70;;;8.40;99.90;;;;;;5016763;28;20025;-94
2022/02/08 06:10:50;;;;;;;35.38;22.55;;;8.40;99.90;;;;;;5002327;28;20125;-95
2022/02/08 06:13:17;;;;;;;35.78;22.40;;;8.40;99.90;;;;;;4997682;28;20037;-93
2022/02/08 06:15:45;;;;;;;36.22;22.52;;;8.40;99.90;;;;;;5014639;28;20044;-94
2022/02/08 06:18:11;;;;;;;32.40;22.15;;;8.40;99.90;;;;;;5015467;28;20064;-94
2022/02/08 06:20:37;;;;;;;32.35;21.92;;;8.40;99.90;;;;;;5014820;28;20064;-95
2022/02/08 06:23:03;;;;;;;39.13;22.52;;;8.30;99.90;;;;;;5016098;28;20053;-94
2022/02/08 06:25:28;;;;;;;35.30;23.33;;;8.30;99.90;;;;;;5014542;28;20033;-93
2022/02/08 06:27:54;;;;;;;35.88;23.27;;;8.30;99.90;;;;;;5015619;28;20454;-96
2022/02/08 06:30:22;;;;;;;35.78;23.40;;;8.20;99.90;;;;;;5005038;28;20037;-94
2022/02/08 06:32:52;;;;;;;37.53;23.33;;;8.20;99.90;;;;;;5008370;28;20050;-94
2022/02/08 06:35:24;;;;;;;35.60;22.55;;;8.20;99.90;;;;;;5014784;28;20040;-94
2022/02/08 06:37:50;;;;;;;33.15;22.33;;;8.20;99.90;;;;;;5016055;28;20124;-95
2022/02/08 06:40:16;;;;;;;37.88;22.58;;;8.20;99.90;;;;;;5015094;28;20033;-94
2022/02/08 06:42:43;;;;;;;38.72;23.60;;;8.20;99.90;;;;;;5014865;28;20116;-94
2022/02/08 06:45:09;;;;;;;41.38;24.38;;;8.10;99.90;;;;;;5011752;28;20084;-94
2022/02/08 06:47:36;;;;;;;43.40;23.63;;;8.10;99.90;;;;;;5015081;28;20026;-95
2022/02/08 06:50:03;;;;;;;39.50;24.02;;;8.10;99.90;;;;;;5010778;28;20465;-94
2022/02/08 06:52:29;;;;;;;36.85;22.92;;;8.10;99.90;;;;;;5013191;28;20053;-94
2022/02/08 06:54:55;;;;;;;39.22;24.42;;;8.10;99.90;;;;;;5007003;28;20056;-93
2022/02/08 06:57:21;;;;;;;37.33;24.33;;;8.10;99.90;;;;;;5005704;28;20031;-94
2022/02/08 06:59:52;;;;;;;35.08;23.67;;;8.00;99.90;;;;;;5013814;28;20032;-94
2022/02/08 07:02:18;;;;;;;36.95;23.05;;;8.00;99.90;;;;;;5009487;28;20046;-94
2022/02/08 07:04:44;;;;;;;41.72;23.95;;;8.00;99.90;;;;;;5034381;28;20469;-95
2022/02/08 07:07:12;;;;;;;42.45;23.17;;;8.10;99.90;;;;;;5017433;28;20052;-94
2022/02/08 07:09:39;;;;;;;40.13;23.50;;;8.10;99.90;;;;;;5038028;28;20028;-95
2022/02/08 07:12:05;;;;;;;67.13;27.42;;;8.10;99.90;;;;;;5006405;28;20120;-96
2022/02/08 07:14:32;;;;;;;44.65;25.02;;;8.10;99.90;;;;;;5025928;28;20489;-94
2022/02/08 07:16:58;;;;;;;38.92;25.20;;;8.20;99.90;;;;;;5031408;28;20084;-95
2022/02/08 07:19:27;;;;;;;36.05;21.48;;;8.30;99.90;;;;;;5036302;28;20036;-94
2022/02/08 07:21:52;;;;;;;35.17;22.40;;;8.40;99.90;;;;;;5015113;28;20030;-93
2022/02/08 07:24:19;;;;;;;31.60;20.92;;;8.40;99.90;;;;;;5010705;28;20037;-93
2022/02/08 07:26:51;;;;;;;34.72;22.30;;;8.50;99.90;;;;;;5023724;28;20029;-96
2022/02/08 07:29:17;;;;;;;34.55;22.70;;;8.50;99.90;;;;;;5026547;28;20033;-93
2022/02/08 07:31:54;;;;;;;33.47;22.02;;;8.60;99.90;;;;;;5015114;28;20029;-94
2022/02/08 07:39:45;;;;;;;37.55;21.92;;;8.60;99.90;;;;;;5029717;28;20120;-93
2022/02/08 07:42:07;;;;;;;38.55;21.73;;;8.50;99.90;;;;;;5032274;28;20037;-94
2022/02/08 07:44:33;;;;;;;33.95;21.63;;;8.50;99.90;;;;;;5023976;28;20033;-93
2022/02/08 07:46:58;;;;;;;36.15;21.60;;;8.50;99.90;;;;;;5019919;28;20124;-93
2022/02/08 07:49:24;;;;;;;32.55;20.35;;;8.50;99.90;;;;;;5032368;28;20029;-93
2022/02/08 07:51:49;;;;;;;37.42;21.67;;;8.50;99.90;;;;;;5004008;28;20030;-92
2022/02/08 07:54:15;;;;;;;30.02;20.52;;;8.50;99.90;;;;;;5015277;28;20085;-92
2022/02/08 07:56:41;;;;;;;38.33;20.90;;;8.50;99.90;;;;;;5031542;28;20025;-93
2022/02/08 07:59:07;;;;;;;30.73;21.17;;;8.50;99.90;;;;;;5032134;28;20025;-93
2022/02/08 08:01:32;;;;;;;36.35;20.80;;;8.60;99.90;;;;;;5032283;28;20051;-94
2022/02/08 08:03:58;;;;;;;30.65;20.08;;;8.50;99.90;;;;;;5011552;28;20022;-94
2022/02/08 08:06:24;;;;;;;33.80;19.65;;;8.50;99.90;;;;;;5035772;28;20046;-94
2022/02/08 08:08:51;;;;;;;31.92;19.17;;;8.50;99.90;;;;;;5035607;28;20086;-95
2022/02/08 08:11:21;;;;;;;33.35;20.38;;;8.60;99.90;;;;;;5042070;28;20424;-92
2022/02/08 08:16:43;;;;;;;28.70;17.42;;;8.60;99.90;;;;;;5032651;28;20037;-94
2022/02/08 08:21:39;;;;;;;25.92;16.70;;;8.70;99.90;;;;;;5047675;28;20119;-93
2022/02/08 08:24:06;;;;;;;28.02;16.83;;;8.80;99.90;;;;;;5032060;28;20060;-92
2022/02/08 08:26:32;;;;;;;24.80;15.18;;;8.80;99.90;;;;;;5011158;28;20040;-93
2022/02/08 08:28:58;;;;;;;27.27;15.00;;;8.80;99.90;;;;;;5026919;28;20121;-92
2022/02/08 08:31:24;;;;;;;26.75;14.60;;;8.90;99.90;;;;;;5021018;28;20064;-93
2022/02/08 08:33:49;;;;;;;29.48;14.82;;;8.90;99.90;;;;;;5032386;28;20026;-93
2022/02/08 08:36:18;;;;;;;25.23;14.75;;;9.00;99.90;;;;;;5014606;28;20033;-93
2022/02/08 08:38:45;;;;;;;25.30;13.43;;;9.00;99.90;;;;;;5011285;28;20558;-93
2022/02/08 08:51:50;;;;;;;22.95;11.20;;;9.20;99.90;;;;;;5039498;28;20108;-92
2022/02/08 08:54:16;;;;;;;19.48;10.52;;;9.20;99.90;;;;;;5038345;28;20489;-95
2022/02/08 08:56:43;;;;;;;16.05;8.90;;;9.30;99.90;;;;;;5024949;28;20120;-94
2022/02/08 08:59:11;;;;;;;17.63;8.65;;;9.30;99.90;;;;;;5024237;28;20091;-94
2022/02/08 09:01:37;;;;;;;18.52;8.75;;;9.40;99.90;;;;;;5016779;28;20524;-93
2022/02/08 09:04:04;;;;;;;18.58;8.20;;;9.40;99.90;;;;;;5036325;28;20030;-93
2022/02/08 09:06:32;;;;;;;17.63;9.50;;;9.50;99.90;;;;;;5037271;28;20405;-94
2022/02/08 09:08:58;;;;;;;15.10;7.47;;;9.50;99.90;;;;;;5015874;28;20021;-94
2022/02/08 09:14:04;;;;;;;14.15;6.18;;;9.60;99.90;;;;;;5027593;28;20433;-94
2022/02/08 09:16:37;;;;;;;13.60;6.03;;;9.70;99.90;;;;;;5045848;28;20076;-93
2022/02/08 09:29:37;;;;;;;12.27;0.90;;;10.00;99.90;;;;;;5035293;28;20037;-93
2022/02/08 09:32:13;;;;;;;7.47;0.70;;;10.10;99.90;;;;;;5016911;28;20030;-94
2022/02/08 09:34:41;;;;;;;8.75;0.63;;;10.30;99.90;;;;;;5015525;28;20021;-93
2022/02/08 09:37:09;;;;;;;7.65;0.60;;;10.30;99.90;;;;;;5021439;28;20028;-95
2022/02/08 09:39:34;;;;;;;10.00;1.27;;;10.40;99.90;;;;;;5013249;28;20037;-95
2022/02/08 09:42:02;;;;;;;7.88;0.50;;;10.40;99.90;;;;;;5041163;28;20033;-93
2022/02/08 09:44:31;;;;;;;9.43;0.52;;;10.50;99.90;;;;;;5019828;28;20026;-94
2022/02/08 09:47:00;;;;;;;9.40;0.45;;;10.50;99.90;;;;;;5032516;28;20036;-93
2022/02/08 09:49:26;;;;;;;9.45;1.15;;;10.60;99.90;;;;;;5017017;28;20025;-94
2022/02/08 09:51:52;;;;;;;5.68;0.73;;;10.60;99.90;;;;;;5028678;28;20511;-94
2022/02/08 09:54:19;;;;;;;4.68;0.40;;;10.70;99.90;;;;;;5052610;28;20021;-93
2022/02/08 09:56:46;;;;;;;10.15;0.70;;;10.70;99.90;;;;;;5044033;28;20032;-93
2022/02/08 09:59:11;;;;;;;6.82;0.40;;;10.80;99.90;;;;;;5017605;28;20485;-93
2022/02/08 10:01:40;;;;;;;5.25;0.60;;;10.80;99.90;;;;;;5048804;28;20056;-95
2022/02/08 10:04:05;;;;;;;4.68;0.35;;;10.90;99.90;;;;;;5051941;28;20025;-94
2022/02/08 10:06:31;;;;;;;2.15;0.30;;;10.90;99.90;;;;;;5052177;28;20052;-94
2022/02/08 10:09:11;;;;;;;9.07;1.27;;;10.90;99.90;;;;;;5051082;28;20381;-94
2022/02/08 10:11:45;;;;;;;7.78;0.60;;;11.00;99.90;;;;;;5032385;28;20443;-94
2022/02/08 10:22:31;;;;;;;7.90;0.52;;;11.10;99.90;;;;;;5038786;28;20224;-94
2022/02/08 10:25:05;;;;;;;11.85;0.85;;;11.10;99.90;;;;;;5044678;28;20086;-95
2022/02/08 10:38:01;;;;;;;5.65;0.50;;;11.30;99.90;;;;;;5046193;28;20040;-94
2022/02/08 10:40:31;;;;;;;7.75;0.35;;;11.30;99.90;;;;;;5034845;28;20119;-93
2022/02/08 10:43:04;;;;;;;6.22;0.73;;;11.30;99.90;;;;;;5032135;28;20025;-94
2022/02/08 10:45:34;;;;;;;;;;;11.30;99.90;;;;;;5033338;28;20037;-94
2022/02/08 10:48:03;;;;;;;9.15;0.50;;;11.40;99.90;;;;;;5023998;28;19913;-94
2022/02/08 10:50:31;;;;;;;6.35;0.50;;;11.30;99.90;;;;;;5031312;28;20047;-94
2022/02/08 10:53:01;;;;;;;7.68;0.68;;;11.30;99.90;;;;;;5017754;28;20040;-95
2022/02/08 10:55:45;;;;;;;7.10;0.50;;;11.30;99.90;;;;;;5035075;28;20021;-94
2022/02/08 10:58:31;;;;;;;9.25;0.65;;;11.40;99.90;;;;;;5016649;28;20045;-94
2022/02/08 11:01:23;;;;;;;5.38;0.55;;;11.40;99.90;;;;;;5019647;28;20393;-95
2022/02/08 11:03:59;;;;;;;4.95;0.43;;;11.40;99.90;;;;;;5047682;28;20095;-92
2022/02/08 11:23:02;;;;;;;6.85;0.50;;;11.40;99.90;;;;;;5032909;28;20397;-93
2022/02/08 11:25:39;;;;;;;9.15;0.70;;;11.40;99.90;;;;;;5019424;28;20044;-93
2022/02/08 11:28:06;;;;;;;7.40;0.70;;;11.50;99.90;;;;;;5003540;28;20117;-94
2022/02/08 11:30:52;;;;;;;7.38;0.60;;;11.50;99.90;;;;;;5033034;28;20116;-95
2022/02/08 11:52:25;;;;;;;7.05;0.50;;;11.80;99.90;;;;;;5033180;28;20017;-92
2022/02/08 12:05:18;;;;;;;3.75;0.30;;;12.00;99.90;;;;;;5032799;28;20033;-95
2022/02/08 12:07:50;;;;;;;3.28;0.30;;;12.00;99.90;;;;;;5018637;28;20331;-96
2022/02/08 12:57:00;;;;;;;5.25;0.50;;;12.00;99.90;;;;;;5036933;28;20029;-95
2022/02/08 13:02:40;;;;;;;3.53;0.30;;;12.00;99.90;;;;;;5016315;28;20084;-94
2022/02/08 14:01:40;;;;;;;3.40;0.20;;;12.00;99.90;;;;;;5025224;28;20100;-96
2022/02/08 14:03:17;;;;;;;5.90;0.50;;;11.80;99.90;;;;;;5035508;28;20060;-95
2022/02/08 14:08:17;;;;;;;5.70;0.50;;;11.80;99.90;;;;;;5018316;28;20087;-96
2022/02/08 14:21:09;;;;;;;3.33;0.40;;;11.80;99.90;;;;;;5035970;28;20091;-95
2022/02/08 14:23:54;;;;;;;4.55;0.50;;;11.80;99.90;;;;;;5033933;28;20104;-95
2022/02/08 14:31:56;;;;;;;6.82;0.50;;;11.80;99.90;;;;;;5035119;28;20097;-93
2022/02/08 15:09:21;;;;;;;7.20;0.70;;;11.90;99.90;;;;;;5044645;28;20034;-95
2022/02/08 15:12:04;;;;;;;4.57;0.40;;;11.90;99.90;;;;;;5035724;28;20109;-95
2022/02/08 15:14:36;;;;;;;8.07;0.57;;;11.90;99.90;;;;;;5034441;28;20028;-93
2022/02/08 15:17:02;;;;;;;8.68;0.85;;;11.90;99.90;;;;;;5019368;28;20167;-96
2022/02/08 15:19:28;;;;;;;7.25;0.82;;;11.90;99.90;;;;;;5016658;28;20092;-95
2022/02/08 15:21:53;;;;;;;5.93;0.40;;;11.80;99.90;;;;;;5017067;28;20087;-94
2022/02/08 15:24:19;;;;;;;7.63;0.40;;;11.80;99.90;;;;;;5015885;28;20022;-95
2022/02/08 15:26:48;;;;;;;6.47;0.40;;;11.80;99.90;;;;;;5034138;28;20060;-95
2022/02/08 15:29:15;;;;;;;3.88;0.40;;;11.70;99.90;;;;;;5017160;28;20029;-94
2022/02/08 15:31:41;;;;;;;8.02;0.80;;;11.70;99.90;;;;;;5017017;28;20079;-96
2022/02/08 15:34:06;;;;;;;4.95;0.60;;;11.70;99.90;;;;;;5022587;28;20021;-95
2022/02/08 15:36:32;;;;;;;3.90;0.50;;;11.70;99.90;;;;;;5004341;28;20496;-94
2022/02/08 15:39:06;;;;;;;4.20;0.35;;;11.60;99.90;;;;;;5016217;28;20024;-95
2022/02/08 15:41:34;;;;;;;5.45;0.52;;;11.60;99.90;;;;;;5007524;28;20025;-96
2022/02/08 15:43:59;;;;;;;4.65;0.40;;;11.50;99.90;;;;;;5019133;28;20034;-96
2022/02/08 15:46:26;;;;;;;5.25;0.70;;;11.50;99.90;;;;;;5017234;28;20056;-95
2022/02/08 15:48:54;;;;;;;2.95;0.30;;;11.50;99.90;;;;;;5002044;28;20064;-96
2022/02/08 15:51:44;;;;;;;8.07;0.70;;;11.50;99.90;;;;;;4987375;28;20049;-95
2022/02/08 15:54:38;;;;;;;9.15;0.60;;;11.40;99.90;;;;;;5027041;22;20059;-96
2022/02/08 16:07:51;;;;;;;6.15;0.40;;;11.30;99.90;;;;;;5035262;28;20033;-95
2022/02/08 16:10:25;;;;;;;4.70;0.30;;;11.30;99.90;;;;;;5037290;28;20084;-95
2022/02/08 16:13:14;;;;;;;10.13;0.40;;;11.30;99.90;;;;;;5037381;28;20086;-93
2022/02/08 16:18:26;;;;;;;5.97;0.50;;;11.20;99.90;;;;;;5029539;28;20021;-94
2022/02/08 16:24:30;;;;;;;5.57;0.40;;;11.20;99.90;;;;;;5027483;28;20088;-96
2022/02/08 16:30:30;;;;;;;2.55;0.28;;;11.20;99.90;;;;;;5050547;28;20038;-96
2022/02/08 16:33:13;;;;;;;6.68;0.63;;;11.20;99.90;;;;;;5054106;28;20056;-96
2022/02/08 16:49:42;;;;;;;3.63;0.70;;;11.00;99.90;;;;;;5047643;28;20033;-95
2022/02/08 16:52:44;;;;;;;8.07;0.90;;;11.00;99.90;;;;;;5036034;28;20022;-96
2022/02/08 17:00:32;;;;;;;5.57;0.93;;;11.00;99.90;;;;;;5049408;28;20039;-96
2022/02/08 17:03:03;;;;;;;9.68;1.33;;;11.00;99.90;;;;;;5048964;28;20029;-96
2022/02/08 17:05:29;;;;;;;4.32;1.20;;;11.00;99.90;;;;;;5039098;28;20048;-96
2022/02/08 17:07:55;;;;;;;5.95;0.90;;;10.90;99.90;;;;;;5038014;28;20042;-96
2022/02/08 17:10:43;;;;;;;7.35;1.00;;;11.00;99.90;;;;;;5048058;28;20105;-96
2022/02/08 17:19:24;;;;;;;6.22;0.95;;;11.00;99.90;;;;;;5051044;28;20068;-96
2022/02/08 17:35:39;;;;;;;7.07;1.20;;;10.90;99.90;;;;;;5049394;28;20098;-96
2022/02/08 17:45:59;;;;;;;4.97;0.63;;;10.80;99.90;;;;;;5037710;28;20106;-96
2022/02/08 17:48:24;;;;;;;5.43;0.70;;;10.80;99.90;;;;;;5035475;28;20048;-96
2022/02/08 17:50:50;;;;;;;3.85;0.60;;;10.80;99.90;;;;;;5053640;28;20029;-96
2022/02/08 17:53:23;;;;;;;3.63;0.75;;;10.80;99.90;;;;;;5031409;28;20061;-95
2022/02/08 17:55:49;;;;;;;5.20;0.80;;;10.70;99.90;;;;;;5049635;28;20059;-95
2022/02/08 17:58:18;;;;;;;6.90;1.13;;;10.70;99.90;;;;;;5051824;28;20041;-96
2022/02/08 18:01:03;;;;;;;3.95;0.60;;;10.70;99.90;;;;;;5051399;28;20089;-96
2022/02/08 18:03:55;;;;;;;4.93;1.00;;;10.60;99.90;;;;;;5051233;28;20013;-96
2022/02/08 18:06:20;;;;;;;7.47;0.90;;;10.60;99.90;;;;;;5044766;28;20030;-96
2022/02/08 18:09:28;;;;;;;5.65;0.85;;;10.50;99.90;;;;;;5035861;28;20050;-96
2022/02/08 18:11:57;;;;;;;8.40;1.73;;;10.50;99.90;;;;;;5034986;28;20064;-96
2022/02/08 18:14:22;;;;;;;5.65;1.67;;;10.40;99.90;;;;;;5048505;28;20060;-96
2022/02/08 18:56:14;;;;;;;9.80;2.78;;;10.30;99.90;;;;;;5033659;28;20060;-96
2022/02/08 19:21:10;;;;;;;8.65;4.75;;;10.30;99.90;;;;;;5057827;28;20036;-96
2022/02/08 19:23:38;;;;;;;7.38;4.50;;;10.40;99.90;;;;;;5055762;28;20021;-96
2022/02/08 19:26:18;;;;;;;10.52;5.03;;;10.30;99.90;;;;;;5058431;28;20053;-94
2022/02/08 19:29:19;;;;;;;7.50;4.60;;;10.30;99.90;;;;;;5042159;28;20113;-94
2022/02/08 19:34:14;;;;;;;10.65;4.35;;;10.20;99.90;;;;;;5076134;22;20511;-81
2022/02/08 19:36:42;;;;;;;11.50;5.97;;;10.30;99.90;;;;;;5071170;28;20020;-82
2022/02/08 19:39:07;;;;;;;10.02;4.47;;;10.30;99.90;;;;;;5070571;28;20107;-81
2022/02/08 19:41:33;;;;;;;8.90;4.25;;;10.30;99.90;;;;;;5067521;28;20099;-79
2022/02/08 19:44:00;;;;;;;9.50;4.65;;;10.30;99.90;;;;;;5061082;28;20020;-80
2022/02/08 19:46:26;;;;;;;9.57;5.00;;;10.30;99.90;;;;;;5059144;28;20033;-82
2022/02/08 19:48:52;;;;;;;10.80;5.55;;;10.20;99.90;;;;;;5053212;28;20025;-79
2022/02/08 19:51:18;;;;;;;11.18;5.47;;;10.20;99.90;;;;;;5058551;28;20035;-82
2022/02/08 19:53:45;;;;;;;8.65;5.05;;;10.20;99.90;;;;;;5058970;28;20025;-81
2022/02/08 19:58:44;;;;;;;10.70;5.40;;;10.20;99.90;;;;;;5071023;28;20016;-82
2022/02/08 20:01:15;;;;;;;10.63;5.75;;;10.20;99.90;;;;;;5059216;28;20024;-83
2022/02/08 20:03:47;;;;;;;9.00;5.05;;;10.10;99.90;;;;;;5034253;28;20396;-80
2022/02/08 20:06:13;;;;;;;9.85;4.85;;;10.20;99.90;;;;;;5046662;28;20454;-82
2022/02/08 20:08:38;;;;;;;10.82;6.30;;;10.20;99.90;;;;;;5059747;28;20025;-80
2022/02/08 20:11:04;;;;;;;11.15;4.97;;;10.10;99.90;;;;;;5053936;28;20075;-81
2022/02/08 20:13:30;;;;;;;9.68;5.55;;;10.10;99.90;;;;;;5062039;28;20440;-81
2022/02/08 20:15:58;;;;;;;8.82;6.05;;;10.10;99.90;;;;;;5053062;28;20041;-81
2022/02/08 20:18:24;;;;;;;7.50;4.70;;;10.10;99.90;;;;;;5055471;28;20021;-82
2022/02/08 20:20:50;;;;;;;10.80;5.65;;;10.10;99.90;;;;;;5036962;28;20124;-83
2022/02/08 20:23:18;;;;;;;9.60;5.00;;;10.00;99.90;;;;;;5052626;28;20019;-83
2022/02/08 20:25:48;;;;;;;9.05;5.20;;;10.10;99.90;;;;;;5066014;28;20476;-82
2022/02/08 20:28:22;;;;;;;12.30;5.80;;;10.10;99.90;;;;;;5064274;28;20039;-82
2022/02/08 20:30:47;;;;;;;8.82;5.28;;;10.00;99.90;;;;;;5058277;28;20100;-83
2022/02/08 20:33:13;;;;;;;9.60;5.55;;;10.10;99.90;;;;;;5056858;28;20502;-83
2022/02/08 20:35:40;;;;;;;8.50;5.60;;;10.10;99.90;;;;;;5056833;28;20040;-83
2022/02/08 20:38:06;;;;;;;12.68;6.28;;;10.00;99.90;;;;;;5043737;28;20039;-83
2022/02/08 20:40:37;;;;;;;9.38;6.20;;;10.00;99.90;;;;;;5058377;28;20822;-84
2022/02/08 20:43:09;;;;;;;9.90;5.78;;;10.00;99.90;;;;;;5044023;28;20059;-83
2022/02/08 20:45:36;;;;;;;11.23;5.88;;;10.00;99.90;;;;;;5055301;28;20032;-83
2022/02/08 20:48:04;;;;;;;9.18;5.80;;;10.00;99.90;;;;;;5067358;28;20021;-83
2022/02/08 20:50:30;;;;;;;11.68;7.03;;;10.00;99.90;;;;;;5055579;28;20021;-84
2022/02/08 20:53:32;;;;;;;13.25;7.47;;;10.00;99.90;;;;;;5073107;28;20063;-83
2022/02/08 20:55:44;;;;;;;12.45;7.38;;;10.00;99.90;;;;;;5062223;28;20032;-82